sensor_id;sensor_type;location;lat;lon;timestamp;temperature;humidity
27306;DHT22;14792;50.886;6.468;2023-09-19T00:01:04;16.10;99.90
27306;DHT22;14792;50.886;6.468;2023-09-19T00:04:05;16.00;99.90
27306;DHT22;14792;50.886;6.468;2023-09-19T00:07:07;16.00;99.90
27306;DHT22;14792;50.886;6.468;2023-09-19T00:10:09;16.00;99.90
27306;DHT22;14792;50.886;6.468;2023-09-19T00:13:10;16.00;99.90
27306;DHT22;14792;50.886;6.468;2023-09-19T00:16:12;16.10;99.90
27306;DHT22;14792;50.886;6.468;2023-09-19T00:19:13;16.10;99.90
27306;DHT22;14792;50.886;6.468;2023-09-19T00:22:15;16.10;99.90
27306;DHT22;14792;50.886;6.468;2023-09-19T00:25:16;16.20;99.90
27306;DHT22;14792;50.886;6.468;2023-09-19T00:28:18;16.20;99.90
27306;DHT22;14792;50.886;6.468;2023-09-19T00:31:20;16.20;99.90
27306;DHT22;14792;50.886;6.468;2023-09-19T00:34:21;16.20;99.90
27306;DHT22;14792;50.886;6.468;2023-09-19T00:37:23;16.20;99.90
27306;DHT22;14792;50.886;6.468;2023-09-19T00:40:24;16.20;99.90
27306;DHT22;14792;50.886;6.468;2023-09-19T00:43:26;16.20;99.90
27306;DHT22;14792;50.886;6.468;2023-09-19T00:46:28;16.30;99.90
27306;DHT22;14792;50.886;6.468;2023-09-19T00:49:29;16.30;99.90
27306;DHT22;14792;50.886;6.468;2023-09-19T00:52:31;16.20;99.90
27306;DHT22;14792;50.886;6.468;2023-09-19T00:55:32;16.20;99.90
27306;DHT22;14792;50.886;6.468;2023-09-19T00:58:34;16.20;99.90
27306;DHT22;14792;50.886;6.468;2023-09-19T01:17:42;16.10;99.90
27306;DHT22;14792;50.886;6.468;2023-09-19T01:44:29;15.90;99.90
27306;DHT22;14792;50.886;6.468;2023-09-19T01:47:51;15.80;99.90
27306;DHT22;14792;50.886;6.468;2023-09-19T01:51:07;15.70;99.90
27306;DHT22;14792;50.886;6.468;2023-09-19T01:54:12;15.60;99.90
27306;DHT22;14792;50.886;6.468;2023-09-19T01:57:28;15.60;99.90
27306;DHT22;14792;50.886;6.468;2023-09-19T02:00:32;15.50;99.90
27306;DHT22;14792;50.886;6.468;2023-09-19T02:03:33;15.40;99.90
27306;DHT22;14792;50.886;6.468;2023-09-19T02:06:39;15.40;99.90
27306;DHT22;14792;50.886;6.468;2023-09-19T02:09:37;15.40;99.90
27306;DHT22;14792;50.886;6.468;2023-09-19T02:12:39;15.30;99.90
27306;DHT22;14792;50.886;6.468;2023-09-19T02:15:40;15.30;99.90
27306;DHT22;14792;50.886;6.468;2023-09-19T02:18:42;15.30;99.90
27306;DHT22;14792;50.886;6.468;2023-09-19T02:21:44;15.30;99.90
27306;DHT22;14792;50.886;6.468;2023-09-19T02:24:45;15.20;99.90
27306;DHT22;14792;50.886;6.468;2023-09-19T02:31:25;15.20;99.90
27306;DHT22;14792;50.886;6.468;2023-09-19T02:34:26;15.20;99.90
27306;DHT22;14792;50.886;6.468;2023-09-19T02:37:28;15.20;99.90
27306;DHT22;14792;50.886;6.468;2023-09-19T02:40:29;15.20;99.90
27306;DHT22;14792;50.886;6.468;2023-09-19T02:43:31;15.20;99.90
27306;DHT22;14792;50.886;6.468;2023-09-19T02:46:33;15.20;99.90
27306;DHT22;14792;50.886;6.468;2023-09-19T02:49:34;15.10;99.90
27306;DHT22;14792;50.886;6.468;2023-09-19T02:52:36;15.10;99.90
27306;DHT22;14792;50.886;6.468;2023-09-19T02:55:38;14.90;99.90
27306;DHT22;14792;50.886;6.468;2023-09-19T02:58:39;15.00;99.90
27306;DHT22;14792;50.886;6.468;2023-09-19T03:01:43;15.10;99.90
27306;DHT22;14792;50.886;6.468;2023-09-19T03:04:42;15.00;99.90
27306;DHT22;14792;50.886;6.468;2023-09-19T03:07:44;15.00;99.90
27306;DHT22;14792;50.886;6.468;2023-09-19T03:10:49;15.00;99.90
27306;DHT22;14792;50.886;6.468;2023-09-19T03:13:51;15.00;99.90
27306;DHT22;14792;50.886;6.468;2023-09-19T03:16:52;14.90;99.90
27306;DHT22;14792;50.886;6.468;2023-09-19T03:19:53;14.90;99.90
27306;DHT22;14792;50.886;6.468;2023-09-19T03:22:55;14.90;99.90
27306;DHT22;14792;50.886;6.468;2023-09-19T03:25:57;14.90;99.90
27306;DHT22;14792;50.886;6.468;2023-09-19T03:28:58;14.90;99.90
27306;DHT22;14792;50.886;6.468;2023-09-19T03:32:00;14.80;99.90
27306;DHT22;14792;50.886;6.468;2023-09-19T03:35:02;14.80;99.90
27306;DHT22;14792;50.886;6.468;2023-09-19T03:38:03;14.80;99.90
27306;DHT22;14792;50.886;6.468;2023-09-19T03:41:05;14.70;99.90
27306;DHT22;14792;50.886;6.468;2023-09-19T03:44:06;14.70;99.90
27306;DHT22;14792;50.886;6.468;2023-09-19T03:47:08;14.70;99.90
27306;DHT22;14792;50.886;6.468;2023-09-19T03:50:10;14.70;99.90
27306;DHT22;14792;50.886;6.468;2023-09-19T03:53:14;14.70;99.90
27306;DHT22;14792;50.886;6.468;2023-09-19T03:56:15;14.60;99.90
27306;DHT22;14792;50.886;6.468;2023-09-19T03:59:17;14.60;99.90
27306;DHT22;14792;50.886;6.468;2023-09-19T04:02:19;14.60;99.90
27306;DHT22;14792;50.886;6.468;2023-09-19T04:05:23;14.60;99.90
27306;DHT22;14792;50.886;6.468;2023-09-19T04:08:25;14.60;99.90
27306;DHT22;14792;50.886;6.468;2023-09-19T04:11:26;14.50;99.90
27306;DHT22;14792;50.886;6.468;2023-09-19T04:14:28;14.50;99.90
27306;DHT22;14792;50.886;6.468;2023-09-19T04:17:29;14.50;99.90
27306;DHT22;14792;50.886;6.468;2023-09-19T04:20:31;14.50;99.90
27306;DHT22;14792;50.886;6.468;2023-09-19T04:23:33;14.50;99.90
27306;DHT22;14792;50.886;6.468;2023-09-19T04:26:34;14.50;99.90
27306;DHT22;14792;50.886;6.468;2023-09-19T04:29:36;14.40;99.90
27306;DHT22;14792;50.886;6.468;2023-09-19T04:32:40;14.50;99.90
27306;DHT22;14792;50.886;6.468;2023-09-19T04:35:42;14.50;99.90
27306;DHT22;14792;50.886;6.468;2023-09-19T04:38:46;14.50;99.90
27306;DHT22;14792;50.886;6.468;2023-09-19T04:41:47;14.40;99.90
27306;DHT22;14792;50.886;6.468;2023-09-19T04:44:49;14.40;99.90
27306;DHT22;14792;50.886;6.468;2023-09-19T04:47:50;14.40;99.90
27306;DHT22;14792;50.886;6.468;2023-09-19T04:50:52;14.40;99.90
27306;DHT22;14792;50.886;6.468;2023-09-19T04:53:54;14.40;99.90
27306;DHT22;14792;50.886;6.468;2023-09-19T04:56:55;14.40;99.90
27306;DHT22;14792;50.886;6.468;2023-09-19T04:59:57;14.40;99.90
27306;DHT22;14792;50.886;6.468;2023-09-19T05:02:58;14.40;99.90
27306;DHT22;14792;50.886;6.468;2023-09-19T05:06:00;14.40;99.90
27306;DHT22;14792;50.886;6.468;2023-09-19T05:09:02;14.30;99.90
27306;DHT22;14792;50.886;6.468;2023-09-19T05:12:03;14.30;99.90
27306;DHT22;14792;50.886;6.468;2023-09-19T05:15:05;14.30;99.90
27306;DHT22;14792;50.886;6.468;2023-09-19T05:18:07;14.40;99.90
27306;DHT22;14792;50.886;6.468;2023-09-19T05:21:09;14.40;99.90
27306;DHT22;14792;50.886;6.468;2023-09-19T05:24:11;14.30;99.90
27306;DHT22;14792;50.886;6.468;2023-09-19T05:27:12;14.30;99.90
27306;DHT22;14792;50.886;6.468;2023-09-19T05:30:14;14.30;99.90
27306;DHT22;14792;50.886;6.468;2023-09-19T05:33:15;14.30;99.90
27306;DHT22;14792;50.886;6.468;2023-09-19T05:36:17;14.30;99.90
27306;DHT22;14792;50.886;6.468;2023-09-19T05:39:19;14.30;99.90
27306;DHT22;14792;50.886;6.468;2023-09-19T05:42:20;14.30;99.90
27306;DHT22;14792;50.886;6.468;2023-09-19T05:45:22;14.30;99.90
27306;DHT22;14792;50.886;6.468;2023-09-19T05:48:23;14.30;99.90
27306;DHT22;14792;50.886;6.468;2023-09-19T05:51:25;14.40;99.90
27306;DHT22;14792;50.886;6.468;2023-09-19T05:54:26;14.40;99.90
27306;DHT22;14792;50.886;6.468;2023-09-19T05:57:28;14.40;99.90
27306;DHT22;14792;50.886;6.468;2023-09-19T06:00:30;14.30;99.90
27306;DHT22;14792;50.886;6.468;2023-09-19T06:03:31;14.40;99.90
27306;DHT22;14792;50.886;6.468;2023-09-19T06:06:33;14.40;99.90
27306;DHT22;14792;50.886;6.468;2023-09-19T06:09:35;14.40;99.90
27306;DHT22;14792;50.886;6.468;2023-09-19T06:12:39;14.40;99.90
27306;DHT22;14792;50.886;6.468;2023-09-19T06:15:41;14.40;99.90
27306;DHT22;14792;50.886;6.468;2023-09-19T06:18:42;14.40;99.90
27306;DHT22;14792;50.886;6.468;2023-09-19T06:21:44;14.50;99.90
27306;DHT22;14792;50.886;6.468;2023-09-19T06:24:45;14.50;99.90
27306;DHT22;14792;50.886;6.468;2023-09-19T06:27:50;14.50;99.90
27306;DHT22;14792;50.886;6.468;2023-09-19T06:30:51;14.60;99.90
27306;DHT22;14792;50.886;6.468;2023-09-19T06:33:53;14.60;99.90
27306;DHT22;14792;50.886;6.468;2023-09-19T06:36:54;14.60;99.90
27306;DHT22;14792;50.886;6.468;2023-09-19T06:39:56;14.70;99.90
27306;DHT22;14792;50.886;6.468;2023-09-19T06:42:57;14.80;99.90
27306;DHT22;14792;50.886;6.468;2023-09-19T06:46:01;14.80;99.90
27306;DHT22;14792;50.886;6.468;2023-09-19T06:49:01;14.80;99.90
27306;DHT22;14792;50.886;6.468;2023-09-19T06:52:02;14.80;99.90
27306;DHT22;14792;50.886;6.468;2023-09-19T06:55:04;14.90;99.90
27306;DHT22;14792;50.886;6.468;2023-09-19T06:58:05;15.00;99.90
27306;DHT22;14792;50.886;6.468;2023-09-19T07:01:07;15.00;99.90
27306;DHT22;14792;50.886;6.468;2023-09-19T07:04:09;15.00;99.90
27306;DHT22;14792;50.886;6.468;2023-09-19T07:07:10;15.00;99.90
27306;DHT22;14792;50.886;6.468;2023-09-19T07:10:12;15.00;99.90
27306;DHT22;14792;50.886;6.468;2023-09-19T07:13:14;15.10;99.90
27306;DHT22;14792;50.886;6.468;2023-09-19T07:16:15;15.20;99.90
27306;DHT22;14792;50.886;6.468;2023-09-19T07:19:16;15.20;99.90
27306;DHT22;14792;50.886;6.468;2023-09-19T07:22:18;15.30;99.90
27306;DHT22;14792;50.886;6.468;2023-09-19T07:25:20;15.40;99.90
27306;DHT22;14792;50.886;6.468;2023-09-19T07:28:21;15.40;99.90
27306;DHT22;14792;50.886;6.468;2023-09-19T07:31:23;15.60;99.90
27306;DHT22;14792;50.886;6.468;2023-09-19T07:34:24;15.70;99.90
27306;DHT22;14792;50.886;6.468;2023-09-19T07:37:26;15.90;99.90
27306;DHT22;14792;50.886;6.468;2023-09-19T07:40:28;16.10;99.90
27306;DHT22;14792;50.886;6.468;2023-09-19T07:43:29;16.20;99.90
27306;DHT22;14792;50.886;6.468;2023-09-19T07:46:31;16.30;99.90
27306;DHT22;14792;50.886;6.468;2023-09-19T07:49:32;16.30;99.90
27306;DHT22;14792;50.886;6.468;2023-09-19T07:52:34;16.40;99.90
27306;DHT22;14792;50.886;6.468;2023-09-19T07:55:37;16.40;99.90
27306;DHT22;14792;50.886;6.468;2023-09-19T07:58:41;16.50;99.90
27306;DHT22;14792;50.886;6.468;2023-09-19T08:01:42;16.70;99.90
27306;DHT22;14792;50.886;6.468;2023-09-19T08:04:44;16.70;99.90
27306;DHT22;14792;50.886;6.468;2023-09-19T08:07:46;16.70;99.90
27306;DHT22;14792;50.886;6.468;2023-09-19T08:10:53;16.80;99.90
27306;DHT22;14792;50.886;6.468;2023-09-19T08:13:54;16.90;99.90
27306;DHT22;14792;50.886;6.468;2023-09-19T08:16:57;17.00;99.90
27306;DHT22;14792;50.886;6.468;2023-09-19T08:19:57;17.00;99.90
27306;DHT22;14792;50.886;6.468;2023-09-19T08:22:59;17.00;99.90
27306;DHT22;14792;50.886;6.468;2023-09-19T08:26:01;16.90;99.90
27306;DHT22;14792;50.886;6.468;2023-09-19T08:29:02;17.10;99.90
27306;DHT22;14792;50.886;6.468;2023-09-19T08:32:04;17.10;99.90
27306;DHT22;14792;50.886;6.468;2023-09-19T08:35:06;17.30;99.90
27306;DHT22;14792;50.886;6.468;2023-09-19T08:38:07;17.50;99.90
27306;DHT22;14792;50.886;6.468;2023-09-19T08:41:09;17.60;99.90
27306;DHT22;14792;50.886;6.468;2023-09-19T08:44:10;17.50;99.90
27306;DHT22;14792;50.886;6.468;2023-09-19T08:47:15;17.60;99.90
27306;DHT22;14792;50.886;6.468;2023-09-19T08:50:23;17.90;99.90
27306;DHT22;14792;50.886;6.468;2023-09-19T08:54:12;17.90;99.90
27306;DHT22;14792;50.886;6.468;2023-09-19T08:56:25;17.90;99.90
27306;DHT22;14792;50.886;6.468;2023-09-19T08:59:27;17.90;99.90
27306;DHT22;14792;50.886;6.468;2023-09-19T09:02:28;17.80;99.90
27306;DHT22;14792;50.886;6.468;2023-09-19T09:05:30;18.00;99.90
27306;DHT22;14792;50.886;6.468;2023-09-19T09:08:31;18.10;99.90
27306;DHT22;14792;50.886;6.468;2023-09-19T09:11:33;18.10;99.90
27306;DHT22;14792;50.886;6.468;2023-09-19T09:14:35;18.00;99.90
27306;DHT22;14792;50.886;6.468;2023-09-19T09:17:36;18.10;99.90
27306;DHT22;14792;50.886;6.468;2023-09-19T09:20:38;18.20;99.90
27306;DHT22;14792;50.886;6.468;2023-09-19T09:23:39;18.40;99.90
27306;DHT22;14792;50.886;6.468;2023-09-19T09:26:41;18.40;99.90
27306;DHT22;14792;50.886;6.468;2023-09-19T09:29:48;18.30;99.90
27306;DHT22;14792;50.886;6.468;2023-09-19T09:33:04;18.60;99.90
27306;DHT22;14792;50.886;6.468;2023-09-19T09:35:55;18.70;99.90
27306;DHT22;14792;50.886;6.468;2023-09-19T09:38:56;18.70;99.90
27306;DHT22;14792;50.886;6.468;2023-09-19T09:41:57;18.80;99.90
27306;DHT22;14792;50.886;6.468;2023-09-19T09:45:18;18.80;99.90
27306;DHT22;14792;50.886;6.468;2023-09-19T09:48:21;19.00;99.90
27306;DHT22;14792;50.886;6.468;2023-09-19T09:51:29;18.90;99.90
27306;DHT22;14792;50.886;6.468;2023-09-19T09:54:32;19.00;99.90
27306;DHT22;14792;50.886;6.468;2023-09-19T09:57:32;19.30;99.90
27306;DHT22;14792;50.886;6.468;2023-09-19T10:00:34;19.30;99.90
27306;DHT22;14792;50.886;6.468;2023-09-19T10:03:38;19.30;99.90
27306;DHT22;14792;50.886;6.468;2023-09-19T10:06:42;19.20;99.90
27306;DHT22;14792;50.886;6.468;2023-09-19T10:09:49;19.20;99.90
27306;DHT22;14792;50.886;6.468;2023-09-19T10:12:51;19.10;99.90
27306;DHT22;14792;50.886;6.468;2023-09-19T10:15:52;19.20;99.90
27306;DHT22;14792;50.886;6.468;2023-09-19T10:18:54;19.50;99.90
27306;DHT22;14792;50.886;6.468;2023-09-19T10:21:56;19.60;99.90
27306;DHT22;14792;50.886;6.468;2023-09-19T10:24:57;19.50;99.90
27306;DHT22;14792;50.886;6.468;2023-09-19T10:28:01;19.50;99.90
27306;DHT22;14792;50.886;6.468;2023-09-19T10:31:03;19.50;99.90
27306;DHT22;14792;50.886;6.468;2023-09-19T10:34:05;19.50;99.90
27306;DHT22;14792;50.886;6.468;2023-09-19T10:37:06;19.50;99.90
27306;DHT22;14792;50.886;6.468;2023-09-19T10:40:08;19.20;99.90
27306;DHT22;14792;50.886;6.468;2023-09-19T10:43:13;19.40;99.90
27306;DHT22;14792;50.886;6.468;2023-09-19T10:46:13;19.60;99.90
27306;DHT22;14792;50.886;6.468;2023-09-19T10:49:15;19.50;99.90
27306;DHT22;14792;50.886;6.468;2023-09-19T10:52:18;19.50;99.90
27306;DHT22;14792;50.886;6.468;2023-09-19T10:55:18;19.50;99.90
27306;DHT22;14792;50.886;6.468;2023-09-19T10:58:26;19.40;99.90
27306;DHT22;14792;50.886;6.468;2023-09-19T11:01:40;19.60;99.90
27306;DHT22;14792;50.886;6.468;2023-09-19T11:04:35;19.40;99.90
27306;DHT22;14792;50.886;6.468;2023-09-19T11:07:56;19.40;99.90
27306;DHT22;14792;50.886;6.468;2023-09-19T11:10:47;19.40;99.90
27306;DHT22;14792;50.886;6.468;2023-09-19T11:14:07;19.40;99.90
27306;DHT22;14792;50.886;6.468;2023-09-19T11:23:18;19.60;99.90
27306;DHT22;14792;50.886;6.468;2023-09-19T11:29:40;19.60;99.90
27306;DHT22;14792;50.886;6.468;2023-09-19T11:36:10;19.70;99.90
27306;DHT22;14792;50.886;6.468;2023-09-19T11:39:24;19.60;99.90
27306;DHT22;14792;50.886;6.468;2023-09-19T11:42:41;19.60;99.90
27306;DHT22;14792;50.886;6.468;2023-09-19T11:48:49;20.10;99.90
27306;DHT22;14792;50.886;6.468;2023-09-19T11:51:51;20.10;99.90
27306;DHT22;14792;50.886;6.468;2023-09-19T11:54:58;20.10;99.90
27306;DHT22;14792;50.886;6.468;2023-09-19T11:57:59;19.90;99.90
27306;DHT22;14792;50.886;6.468;2023-09-19T12:01:01;20.20;99.90
27306;DHT22;14792;50.886;6.468;2023-09-19T12:04:03;20.00;99.90
27306;DHT22;14792;50.886;6.468;2023-09-19T12:07:08;20.30;99.90
27306;DHT22;14792;50.886;6.468;2023-09-19T12:10:09;20.50;99.90
27306;DHT22;14792;50.886;6.468;2023-09-19T12:13:15;20.50;99.90
27306;DHT22;14792;50.886;6.468;2023-09-19T12:16:15;20.30;99.90
27306;DHT22;14792;50.886;6.468;2023-09-19T12:19:17;20.40;99.90
27306;DHT22;14792;50.886;6.468;2023-09-19T12:22:19;20.50;99.90
27306;DHT22;14792;50.886;6.468;2023-09-19T12:25:20;20.70;99.90
27306;DHT22;14792;50.886;6.468;2023-09-19T12:28:22;20.70;99.90
27306;DHT22;14792;50.886;6.468;2023-09-19T12:31:23;21.20;99.90
27306;DHT22;14792;50.886;6.468;2023-09-19T12:34:25;21.10;99.90
27306;DHT22;14792;50.886;6.468;2023-09-19T12:37:26;21.10;99.90
27306;DHT22;14792;50.886;6.468;2023-09-19T12:40:31;21.00;99.90
27306;DHT22;14792;50.886;6.468;2023-09-19T12:43:32;21.10;99.90
27306;DHT22;14792;50.886;6.468;2023-09-19T12:46:34;20.90;99.90
27306;DHT22;14792;50.886;6.468;2023-09-19T12:49:35;20.90;99.90
27306;DHT22;14792;50.886;6.468;2023-09-19T12:52:37;21.00;99.90
27306;DHT22;14792;50.886;6.468;2023-09-19T12:55:39;21.30;99.90
27306;DHT22;14792;50.886;6.468;2023-09-19T12:58:56;21.40;99.90
27306;DHT22;14792;50.886;6.468;2023-09-19T13:02:03;21.20;99.90
27306;DHT22;14792;50.886;6.468;2023-09-19T13:04:58;21.20;99.90
27306;DHT22;14792;50.886;6.468;2023-09-19T13:08:05;21.00;99.90
27306;DHT22;14792;50.886;6.468;2023-09-19T13:11:02;20.90;99.90
27306;DHT22;14792;50.886;6.468;2023-09-19T13:17:22;20.90;99.90
27306;DHT22;14792;50.886;6.468;2023-09-19T13:20:27;20.70;99.90
27306;DHT22;14792;50.886;6.468;2023-09-19T13:23:28;20.70;99.90
27306;DHT22;14792;50.886;6.468;2023-09-19T13:26:30;20.80;99.90
27306;DHT22;14792;50.886;6.468;2023-09-19T13:29:31;20.90;99.90
27306;DHT22;14792;50.886;6.468;2023-09-19T13:32:33;21.00;99.90
27306;DHT22;14792;50.886;6.468;2023-09-19T13:35:35;21.00;99.90
27306;DHT22;14792;50.886;6.468;2023-09-19T13:38:36;20.90;99.90
27306;DHT22;14792;50.886;6.468;2023-09-19T13:41:38;20.70;99.90
27306;DHT22;14792;50.886;6.468;2023-09-19T13:44:40;20.60;99.90
27306;DHT22;14792;50.886;6.468;2023-09-19T13:47:41;20.80;99.90
27306;DHT22;14792;50.886;6.468;2023-09-19T13:50:43;20.50;99.90
27306;DHT22;14792;50.886;6.468;2023-09-19T13:53:44;20.40;99.90
27306;DHT22;14792;50.886;6.468;2023-09-19T13:56:46;20.40;99.90
27306;DHT22;14792;50.886;6.468;2023-09-19T13:59:47;20.60;99.90
27306;DHT22;14792;50.886;6.468;2023-09-19T14:02:49;20.50;99.90
27306;DHT22;14792;50.886;6.468;2023-09-19T14:05:51;20.50;99.90
27306;DHT22;14792;50.886;6.468;2023-09-19T14:08:52;20.50;99.90
27306;DHT22;14792;50.886;6.468;2023-09-19T14:11:54;20.40;99.90
27306;DHT22;14792;50.886;6.468;2023-09-19T14:14:55;20.40;99.90
27306;DHT22;14792;50.886;6.468;2023-09-19T14:17:57;20.50;99.90
27306;DHT22;14792;50.886;6.468;2023-09-19T14:21:02;20.60;99.90
27306;DHT22;14792;50.886;6.468;2023-09-19T14:24:00;20.50;99.90
27306;DHT22;14792;50.886;6.468;2023-09-19T14:27:02;20.50;99.90
27306;DHT22;14792;50.886;6.468;2023-09-19T14:30:04;20.80;99.90
27306;DHT22;14792;50.886;6.468;2023-09-19T14:33:05;20.80;99.90
27306;DHT22;14792;50.886;6.468;2023-09-19T14:36:07;20.70;99.90
27306;DHT22;14792;50.886;6.468;2023-09-19T14:39:09;20.60;99.90
27306;DHT22;14792;50.886;6.468;2023-09-19T14:42:10;20.50;99.90
27306;DHT22;14792;50.886;6.468;2023-09-19T14:45:12;20.40;99.90
27306;DHT22;14792;50.886;6.468;2023-09-19T14:48:13;20.60;99.90
27306;DHT22;14792;50.886;6.468;2023-09-19T14:51:15;20.50;99.90
27306;DHT22;14792;50.886;6.468;2023-09-19T14:54:16;20.40;99.90
27306;DHT22;14792;50.886;6.468;2023-09-19T14:57:18;20.50;99.90
27306;DHT22;14792;50.886;6.468;2023-09-19T15:00:20;20.50;99.90
27306;DHT22;14792;50.886;6.468;2023-09-19T15:03:21;20.60;99.90
27306;DHT22;14792;50.886;6.468;2023-09-19T15:06:23;20.50;99.90
27306;DHT22;14792;50.886;6.468;2023-09-19T15:09:25;20.50;99.90
27306;DHT22;14792;50.886;6.468;2023-09-19T15:12:27;20.40;99.90
27306;DHT22;14792;50.886;6.468;2023-09-19T15:15:30;20.30;99.90
27306;DHT22;14792;50.886;6.468;2023-09-19T15:18:30;20.20;99.90
27306;DHT22;14792;50.886;6.468;2023-09-19T15:21:32;20.00;99.90
27306;DHT22;14792;50.886;6.468;2023-09-19T15:24:33;20.10;99.90
27306;DHT22;14792;50.886;6.468;2023-09-19T15:27:35;20.00;99.90
27306;DHT22;14792;50.886;6.468;2023-09-19T15:30:37;20.10;99.90
27306;DHT22;14792;50.886;6.468;2023-09-19T15:33:39;20.00;99.90
27306;DHT22;14792;50.886;6.468;2023-09-19T15:36:40;20.00;99.90
27306;DHT22;14792;50.886;6.468;2023-09-19T15:39:42;20.10;99.90
27306;DHT22;14792;50.886;6.468;2023-09-19T15:42:43;20.30;99.90
27306;DHT22;14792;50.886;6.468;2023-09-19T15:45:48;20.10;99.90
27306;DHT22;14792;50.886;6.468;2023-09-19T15:48:52;20.00;99.90
27306;DHT22;14792;50.886;6.468;2023-09-19T15:51:53;19.80;99.90
27306;DHT22;14792;50.886;6.468;2023-09-19T15:54:55;19.90;99.90
27306;DHT22;14792;50.886;6.468;2023-09-19T15:57:56;19.90;99.90
27306;DHT22;14792;50.886;6.468;2023-09-19T16:00:58;19.70;99.90
27306;DHT22;14792;50.886;6.468;2023-09-19T16:03:59;19.70;99.90
27306;DHT22;14792;50.886;6.468;2023-09-19T16:07:01;19.60;99.90
27306;DHT22;14792;50.886;6.468;2023-09-19T16:10:03;19.60;99.90
27306;DHT22;14792;50.886;6.468;2023-09-19T16:13:04;19.50;99.90
27306;DHT22;14792;50.886;6.468;2023-09-19T16:16:07;19.70;99.90
27306;DHT22;14792;50.886;6.468;2023-09-19T16:19:07;19.60;99.90
27306;DHT22;14792;50.886;6.468;2023-09-19T16:22:09;19.60;99.90
27306;DHT22;14792;50.886;6.468;2023-09-19T16:25:11;19.60;99.90
27306;DHT22;14792;50.886;6.468;2023-09-19T16:28:12;19.50;99.90
27306;DHT22;14792;50.886;6.468;2023-09-19T16:31:14;19.50;99.90
27306;DHT22;14792;50.886;6.468;2023-09-19T16:34:15;19.50;99.90
27306;DHT22;14792;50.886;6.468;2023-09-19T16:37:17;19.40;99.90
27306;DHT22;14792;50.886;6.468;2023-09-19T16:40:18;19.30;99.90
27306;DHT22;14792;50.886;6.468;2023-09-19T16:43:21;19.30;99.90
27306;DHT22;14792;50.886;6.468;2023-09-19T16:46:22;19.20;99.90
27306;DHT22;14792;50.886;6.468;2023-09-19T16:49:23;19.20;99.90
27306;DHT22;14792;50.886;6.468;2023-09-19T16:52:25;19.10;99.90
27306;DHT22;14792;50.886;6.468;2023-09-19T16:55:26;19.10;99.90
27306;DHT22;14792;50.886;6.468;2023-09-19T16:58:28;19.10;99.90
27306;DHT22;14792;50.886;6.468;2023-09-19T17:01:30;18.90;99.90
27306;DHT22;14792;50.886;6.468;2023-09-19T17:04:31;18.90;99.90
27306;DHT22;14792;50.886;6.468;2023-09-19T17:07:33;18.80;99.90
27306;DHT22;14792;50.886;6.468;2023-09-19T17:10:36;18.80;99.90
27306;DHT22;14792;50.886;6.468;2023-09-19T17:13:37;18.60;99.90
27306;DHT22;14792;50.886;6.468;2023-09-19T17:16:39;18.60;99.90
27306;DHT22;14792;50.886;6.468;2023-09-19T17:19:40;18.50;99.90
27306;DHT22;14792;50.886;6.468;2023-09-19T17:22:42;18.50;99.90
27306;DHT22;14792;50.886;6.468;2023-09-19T17:25:44;18.40;99.90
27306;DHT22;14792;50.886;6.468;2023-09-19T17:28:45;18.40;99.90
27306;DHT22;14792;50.886;6.468;2023-09-19T17:31:47;18.30;99.90
27306;DHT22;14792;50.886;6.468;2023-09-19T17:34:48;18.20;99.90
27306;DHT22;14792;50.886;6.468;2023-09-19T17:37:50;18.20;99.90
27306;DHT22;14792;50.886;6.468;2023-09-19T17:40:52;18.10;99.90
27306;DHT22;14792;50.886;6.468;2023-09-19T17:43:54;18.10;99.90
27306;DHT22;14792;50.886;6.468;2023-09-19T17:46:55;18.00;99.90
27306;DHT22;14792;50.886;6.468;2023-09-19T17:49:56;18.00;99.90
27306;DHT22;14792;50.886;6.468;2023-09-19T17:52:58;18.00;99.90
27306;DHT22;14792;50.886;6.468;2023-09-19T17:56:00;18.00;99.90
27306;DHT22;14792;50.886;6.468;2023-09-19T17:59:01;17.90;99.90
27306;DHT22;14792;50.886;6.468;2023-09-19T18:02:03;17.80;99.90
27306;DHT22;14792;50.886;6.468;2023-09-19T18:05:04;17.80;99.90
27306;DHT22;14792;50.886;6.468;2023-09-19T18:08:06;17.80;99.90
27306;DHT22;14792;50.886;6.468;2023-09-19T18:11:11;17.80;99.90
27306;DHT22;14792;50.886;6.468;2023-09-19T18:14:09;17.80;99.90
27306;DHT22;14792;50.886;6.468;2023-09-19T18:17:11;17.80;99.90
27306;DHT22;14792;50.886;6.468;2023-09-19T18:20:12;17.70;99.90
27306;DHT22;14792;50.886;6.468;2023-09-19T18:23:14;17.80;99.90
27306;DHT22;14792;50.886;6.468;2023-09-19T18:26:15;17.80;99.90
27306;DHT22;14792;50.886;6.468;2023-09-19T18:29:17;17.80;99.90
27306;DHT22;14792;50.886;6.468;2023-09-19T18:32:20;17.80;99.90
27306;DHT22;14792;50.886;6.468;2023-09-19T18:35:21;17.90;99.90
27306;DHT22;14792;50.886;6.468;2023-09-19T18:38:23;17.90;99.90
27306;DHT22;14792;50.886;6.468;2023-09-19T18:41:24;17.80;99.90
27306;DHT22;14792;50.886;6.468;2023-09-19T18:44:26;17.90;99.90
27306;DHT22;14792;50.886;6.468;2023-09-19T18:47:28;17.80;99.90
27306;DHT22;14792;50.886;6.468;2023-09-19T18:50:29;17.90;99.90
27306;DHT22;14792;50.886;6.468;2023-09-19T18:53:31;17.80;99.90
27306;DHT22;14792;50.886;6.468;2023-09-19T18:56:32;17.80;99.90
27306;DHT22;14792;50.886;6.468;2023-09-19T18:59:34;17.90;99.90
27306;DHT22;14792;50.886;6.468;2023-09-19T19:02:36;17.90;99.90
27306;DHT22;14792;50.886;6.468;2023-09-19T19:05:37;17.90;99.90
27306;DHT22;14792;50.886;6.468;2023-09-19T19:08:39;17.90;99.90
27306;DHT22;14792;50.886;6.468;2023-09-19T19:11:40;17.80;99.90
27306;DHT22;14792;50.886;6.468;2023-09-19T19:14:42;17.80;99.90
27306;DHT22;14792;50.886;6.468;2023-09-19T19:17:46;17.80;99.90
27306;DHT22;14792;50.886;6.468;2023-09-19T19:20:55;17.80;99.90
27306;DHT22;14792;50.886;6.468;2023-09-19T19:23:50;17.80;99.90
27306;DHT22;14792;50.886;6.468;2023-09-19T19:26:51;17.80;99.90
27306;DHT22;14792;50.886;6.468;2023-09-19T19:29:52;17.80;99.90
27306;DHT22;14792;50.886;6.468;2023-09-19T19:32:54;17.80;99.90
27306;DHT22;14792;50.886;6.468;2023-09-19T19:36:05;17.90;99.90
27306;DHT22;14792;50.886;6.468;2023-09-19T19:39:06;17.90;99.90
27306;DHT22;14792;50.886;6.468;2023-09-19T19:42:07;17.90;99.90
27306;DHT22;14792;50.886;6.468;2023-09-19T19:45:09;17.90;99.90
27306;DHT22;14792;50.886;6.468;2023-09-19T19:48:10;17.90;99.90
27306;DHT22;14792;50.886;6.468;2023-09-19T19:51:12;17.90;99.90
27306;DHT22;14792;50.886;6.468;2023-09-19T19:54:14;17.90;99.90
27306;DHT22;14792;50.886;6.468;2023-09-19T19:57:15;17.90;99.90
27306;DHT22;14792;50.886;6.468;2023-09-19T20:00:17;17.90;99.90
27306;DHT22;14792;50.886;6.468;2023-09-19T20:03:18;17.90;99.90
27306;DHT22;14792;50.886;6.468;2023-09-19T20:06:20;17.90;99.90
27306;DHT22;14792;50.886;6.468;2023-09-19T20:09:22;17.90;99.90
27306;DHT22;14792;50.886;6.468;2023-09-19T20:12:23;18.00;99.90